sensor_id;sensor_type;location;lat;lon;timestamp;P1;durP1;ratioP1;P2;durP2;ratioP2
18929;SDS011;43305;52.186;5.598;2023-11-21T00:02:27;25.27;;;12.50;;
18929;SDS011;43305;52.186;5.598;2023-11-21T00:04:55;28.77;;;12.68;;
18929;SDS011;43305;52.186;5.598;2023-11-21T00:07:22;26.83;;;13.32;;
18929;SDS011;43305;52.186;5.598;2023-11-21T00:09:49;27.67;;;13.88;;
18929;SDS011;43305;52.186;5.598;2023-11-21T00:12:16;27.05;;;13.55;;
18929;SDS011;43305;52.186;5.598;2023-11-21T00:14:42;33.92;;;14.70;;
18929;SDS011;43305;52.186;5.598;2023-11-21T00:17:09;26.17;;;13.30;;
18929;SDS011;43305;52.186;5.598;2023-11-21T00:19:37;33.38;;;14.85;;
18929;SDS011;43305;52.186;5.598;2023-11-21T00:22:04;30.60;;;13.75;;
18929;SDS011;43305;52.186;5.598;2023-11-21T00:24:32;33.50;;;14.68;;
18929;SDS011;43305;52.186;5.598;2023-11-21T00:26:59;41.78;;;14.73;;
18929;SDS011;43305;52.186;5.598;2023-11-21T00:29:29;40.50;;;15.00;;
18929;SDS011;43305;52.186;5.598;2023-11-21T00:31:56;40.70;;;15.18;;
18929;SDS011;43305;52.186;5.598;2023-11-21T00:34:23;37.85;;;14.73;;
18929;SDS011;43305;52.186;5.598;2023-11-21T00:36:51;46.25;;;15.75;;
18929;SDS011;43305;52.186;5.598;2023-11-21T00:39:18;54.75;;;16.50;;
18929;SDS011;43305;52.186;5.598;2023-11-21T00:41:45;44.50;;;16.73;;
18929;SDS011;43305;52.186;5.598;2023-11-21T00:44:13;39.85;;;16.15;;
18929;SDS011;43305;52.186;5.598;2023-11-21T00:46:41;39.95;;;17.13;;
18929;SDS011;43305;52.186;5.598;2023-11-21T00:49:10;39.97;;;16.45;;
18929;SDS011;43305;52.186;5.598;2023-11-21T00:51:38;42.13;;;16.27;;
18929;SDS011;43305;52.186;5.598;2023-11-21T00:54:06;38.63;;;16.52;;
18929;SDS011;43305;52.186;5.598;2023-11-21T00:56:33;42.53;;;17.48;;
18929;SDS011;43305;52.186;5.598;2023-11-21T00:59:00;50.30;;;18.23;;
18929;SDS011;43305;52.186;5.598;2023-11-21T01:01:28;49.72;;;17.75;;
18929;SDS011;43305;52.186;5.598;2023-11-21T01:03:56;50.83;;;17.95;;
18929;SDS011;43305;52.186;5.598;2023-11-21T01:06:23;52.60;;;18.17;;
18929;SDS011;43305;52.186;5.598;2023-11-21T01:08:50;47.88;;;18.20;;
18929;SDS011;43305;52.186;5.598;2023-11-21T01:11:18;47.65;;;18.23;;
18929;SDS011;43305;52.186;5.598;2023-11-21T01:13:45;46.50;;;18.05;;
18929;SDS011;43305;52.186;5.598;2023-11-21T01:16:11;50.85;;;19.20;;
18929;SDS011;43305;52.186;5.598;2023-11-21T01:18:38;56.40;;;20.25;;
18929;SDS011;43305;52.186;5.598;2023-11-21T01:21:05;51.47;;;19.13;;
18929;SDS011;43305;52.186;5.598;2023-11-21T01:23:34;50.17;;;18.75;;
18929;SDS011;43305;52.186;5.598;2023-11-21T01:26:03;42.97;;;17.38;;
18929;SDS011;43305;52.186;5.598;2023-11-21T01:28:32;43.60;;;18.00;;
18929;SDS011;43305;52.186;5.598;2023-11-21T01:30:59;44.88;;;17.50;;
18929;SDS011;43305;52.186;5.598;2023-11-21T01:33:28;44.58;;;17.85;;
18929;SDS011;43305;52.186;5.598;2023-11-21T01:35:56;47.67;;;19.35;;
18929;SDS011;43305;52.186;5.598;2023-11-21T01:38:23;42.92;;;18.40;;
18929;SDS011;43305;52.186;5.598;2023-11-21T01:40:50;50.42;;;19.15;;
18929;SDS011;43305;52.186;5.598;2023-11-21T01:43:17;40.80;;;18.15;;
18929;SDS011;43305;52.186;5.598;2023-11-21T01:45:45;40.08;;;18.45;;
18929;SDS011;43305;52.186;5.598;2023-11-21T01:48:12;46.13;;;18.33;;
18929;SDS011;43305;52.186;5.598;2023-11-21T01:50:41;43.70;;;19.25;;
18929;SDS011;43305;52.186;5.598;2023-11-21T01:53:10;41.33;;;18.58;;
18929;SDS011;43305;52.186;5.598;2023-11-21T01:55:39;45.53;;;18.23;;
18929;SDS011;43305;52.186;5.598;2023-11-21T01:58:07;39.97;;;17.85;;
18929;SDS011;43305;52.186;5.598;2023-11-21T02:00:34;43.53;;;19.17;;
18929;SDS011;43305;52.186;5.598;2023-11-21T02:03:04;40.67;;;17.35;;
18929;SDS011;43305;52.186;5.598;2023-11-21T02:05:32;43.17;;;18.17;;
18929;SDS011;43305;52.186;5.598;2023-11-21T02:07:59;39.42;;;18.10;;
18929;SDS011;43305;52.186;5.598;2023-11-21T02:10:27;42.00;;;17.88;;
18929;SDS011;43305;52.186;5.598;2023-11-21T02:12:56;43.72;;;19.10;;
18929;SDS011;43305;52.186;5.598;2023-11-21T02:15:23;39.42;;;17.52;;
18929;SDS011;43305;52.186;5.598;2023-11-21T02:17:53;40.08;;;18.13;;
18929;SDS011;43305;52.186;5.598;2023-11-21T02:20:24;39.45;;;17.92;;
18929;SDS011;43305;52.186;5.598;2023-11-21T02:22:55;36.67;;;17.35;;
18929;SDS011;43305;52.186;5.598;2023-11-21T02:25:24;36.95;;;18.23;;
18929;SDS011;43305;52.186;5.598;2023-11-21T02:27:51;36.75;;;17.10;;
18929;SDS011;43305;52.186;5.598;2023-11-21T02:30:19;44.17;;;18.35;;
18929;SDS011;43305;52.186;5.598;2023-11-21T02:32:46;41.45;;;19.30;;
18929;SDS011;43305;52.186;5.598;2023-11-21T02:35:13;41.45;;;18.92;;
18929;SDS011;43305;52.186;5.598;2023-11-21T02:37:41;36.60;;;18.02;;
18929;SDS011;43305;52.186;5.598;2023-11-21T02:40:10;40.67;;;18.20;;
18929;SDS011;43305;52.186;5.598;2023-11-21T02:42:38;37.05;;;17.60;;
18929;SDS011;43305;52.186;5.598;2023-11-21T02:45:06;39.95;;;18.60;;
18929;SDS011;43305;52.186;5.598;2023-11-21T02:47:34;39.53;;;18.38;;
18929;SDS011;43305;52.186;5.598;2023-11-21T02:50:04;39.05;;;18.13;;
18929;SDS011;43305;52.186;5.598;2023-11-21T02:52:33;40.45;;;17.58;;
18929;SDS011;43305;52.186;5.598;2023-11-21T02:55:00;36.97;;;17.58;;
18929;SDS011;43305;52.186;5.598;2023-11-21T02:57:29;36.15;;;16.67;;
18929;SDS011;43305;52.186;5.598;2023-11-21T02:59:58;39.95;;;17.95;;
18929;SDS011;43305;52.186;5.598;2023-11-21T03:02:25;36.95;;;17.45;;
18929;SDS011;43305;52.186;5.598;2023-11-21T03:04:52;35.25;;;16.48;;
18929;SDS011;43305;52.186;5.598;2023-11-21T03:07:19;33.55;;;16.85;;
18929;SDS011;43305;52.186;5.598;2023-11-21T03:09:46;33.97;;;16.45;;
18929;SDS011;43305;52.186;5.598;2023-11-21T03:12:13;33.95;;;16.42;;
18929;SDS011;43305;52.186;5.598;2023-11-21T03:14:42;32.05;;;15.95;;
18929;SDS011;43305;52.186;5.598;2023-11-21T03:17:09;35.38;;;17.52;;
18929;SDS011;43305;52.186;5.598;2023-11-21T03:19:36;39.85;;;17.65;;
18929;SDS011;43305;52.186;5.598;2023-11-21T03:22:03;33.13;;;15.35;;
18929;SDS011;43305;52.186;5.598;2023-11-21T03:24:30;30.73;;;15.40;;
18929;SDS011;43305;52.186;5.598;2023-11-21T03:26:57;37.55;;;16.30;;
18929;SDS011;43305;52.186;5.598;2023-11-21T03:29:25;35.90;;;15.93;;
18929;SDS011;43305;52.186;5.598;2023-11-21T03:31:53;29.40;;;15.15;;
18929;SDS011;43305;52.186;5.598;2023-11-21T03:34:23;32.85;;;14.77;;
18929;SDS011;43305;52.186;5.598;2023-11-21T03:36:51;36.50;;;15.27;;
18929;SDS011;43305;52.186;5.598;2023-11-21T03:39:18;29.58;;;14.60;;
18929;SDS011;43305;52.186;5.598;2023-11-21T03:41:45;29.52;;;14.43;;
18929;SDS011;43305;52.186;5.598;2023-11-21T03:44:12;30.48;;;13.82;;
18929;SDS011;43305;52.186;5.598;2023-11-21T03:46:39;32.58;;;14.43;;
18929;SDS011;43305;52.186;5.598;2023-11-21T03:49:08;32.13;;;14.35;;
18929;SDS011;43305;52.186;5.598;2023-11-21T03:51:35;31.55;;;14.05;;
18929;SDS011;43305;52.186;5.598;2023-11-21T03:54:02;32.92;;;13.82;;
18929;SDS011;43305;52.186;5.598;2023-11-21T03:56:30;29.38;;;14.13;;
18929;SDS011;43305;52.186;5.598;2023-11-21T03:58:59;30.33;;;14.00;;
18929;SDS011;43305;52.186;5.598;2023-11-21T04:01:26;33.15;;;13.55;;
18929;SDS011;43305;52.186;5.598;2023-11-21T04:03:52;32.92;;;13.90;;
18929;SDS011;43305;52.186;5.598;2023-11-21T04:06:21;28.10;;;13.80;;
18929;SDS011;43305;52.186;5.598;2023-11-21T04:08:47;34.08;;;14.90;;
18929;SDS011;43305;52.186;5.598;2023-11-21T04:11:14;31.35;;;12.98;;
18929;SDS011;43305;52.186;5.598;2023-11-21T04:13:41;35.92;;;13.68;;
18929;SDS011;43305;52.186;5.598;2023-11-21T04:16:09;31.77;;;13.82;;
18929;SDS011;43305;52.186;5.598;2023-11-21T04:18:36;25.60;;;12.98;;
18929;SDS011;43305;52.186;5.598;2023-11-21T04:21:03;29.38;;;13.52;;
18929;SDS011;43305;52.186;5.598;2023-11-21T04:23:33;28.10;;;13.25;;
18929;SDS011;43305;52.186;5.598;2023-11-21T04:26:00;27.92;;;13.77;;
18929;SDS011;43305;52.186;5.598;2023-11-21T04:28:30;35.13;;;13.55;;
18929;SDS011;43305;52.186;5.598;2023-11-21T04:31:03;29.35;;;13.73;;
18929;SDS011;43305;52.186;5.598;2023-11-21T04:33:32;28.33;;;13.98;;
18929;SDS011;43305;52.186;5.598;2023-11-21T04:35:58;30.00;;;13.93;;
18929;SDS011;43305;52.186;5.598;2023-11-21T04:38:25;30.20;;;13.38;;
18929;SDS011;43305;52.186;5.598;2023-11-21T04:40:54;41.05;;;15.32;;
18929;SDS011;43305;52.186;5.598;2023-11-21T04:43:20;35.70;;;14.00;;
18929;SDS011;43305;52.186;5.598;2023-11-21T04:45:47;34.90;;;14.13;;
18929;SDS011;43305;52.186;5.598;2023-11-21T04:48:14;30.20;;;14.05;;
18929;SDS011;43305;52.186;5.598;2023-11-21T04:50:41;36.22;;;13.90;;
18929;SDS011;43305;52.186;5.598;2023-11-21T04:53:07;27.92;;;13.45;;
18929;SDS011;43305;52.186;5.598;2023-11-21T04:55:34;32.55;;;14.63;;
18929;SDS011;43305;52.186;5.598;2023-11-21T04:58:05;34.88;;;14.60;;
18929;SDS011;43305;52.186;5.598;2023-11-21T05:00:33;36.78;;;14.93;;
18929;SDS011;43305;52.186;5.598;2023-11-21T05:03:04;41.70;;;14.95;;
18929;SDS011;43305;52.186;5.598;2023-11-21T05:05:32;32.03;;;13.40;;
18929;SDS011;43305;52.186;5.598;2023-11-21T05:08:00;36.35;;;14.40;;
18929;SDS011;43305;52.186;5.598;2023-11-21T05:10:27;30.25;;;13.43;;
18929;SDS011;43305;52.186;5.598;2023-11-21T05:12:55;31.17;;;13.90;;
18929;SDS011;43305;52.186;5.598;2023-11-21T05:15:23;34.58;;;14.32;;
18929;SDS011;43305;52.186;5.598;2023-11-21T05:17:50;39.30;;;14.80;;
18929;SDS011;43305;52.186;5.598;2023-11-21T05:20:17;29.98;;;13.98;;
18929;SDS011;43305;52.186;5.598;2023-11-21T05:22:46;33.00;;;13.40;;
18929;SDS011;43305;52.186;5.598;2023-11-21T05:25:13;28.42;;;13.60;;
18929;SDS011;43305;52.186;5.598;2023-11-21T05:27:41;33.97;;;14.48;;
18929;SDS011;43305;52.186;5.598;2023-11-21T05:30:09;34.75;;;14.30;;
18929;SDS011;43305;52.186;5.598;2023-11-21T05:32:39;32.30;;;13.90;;
18929;SDS011;43305;52.186;5.598;2023-11-21T05:35:07;28.60;;;13.57;;
18929;SDS011;43305;52.186;5.598;2023-11-21T05:37:39;36.78;;;15.38;;
18929;SDS011;43305;52.186;5.598;2023-11-21T05:40:06;32.75;;;13.63;;
18929;SDS011;43305;52.186;5.598;2023-11-21T05:42:34;34.25;;;14.57;;
18929;SDS011;43305;52.186;5.598;2023-11-21T05:45:03;32.03;;;14.13;;
18929;SDS011;43305;52.186;5.598;2023-11-21T05:47:35;30.33;;;13.82;;
18929;SDS011;43305;52.186;5.598;2023-11-21T05:50:08;29.88;;;13.57;;
18929;SDS011;43305;52.186;5.598;2023-11-21T05:52:37;36.10;;;14.75;;
18929;SDS011;43305;52.186;5.598;2023-11-21T05:55:04;32.50;;;14.15;;
18929;SDS011;43305;52.186;5.598;2023-11-21T05:57:35;38.88;;;15.90;;
18929;SDS011;43305;52.186;5.598;2023-11-21T06:00:03;38.63;;;15.75;;
18929;SDS011;43305;52.186;5.598;2023-11-21T06:02:36;42.97;;;17.40;;
18929;SDS011;43305;52.186;5.598;2023-11-21T06:05:04;38.03;;;16.17;;
18929;SDS011;43305;52.186;5.598;2023-11-21T06:07:35;37.22;;;16.02;;
18929;SDS011;43305;52.186;5.598;2023-11-21T06:10:06;45.58;;;18.02;;
18929;SDS011;43305;52.186;5.598;2023-11-21T06:12:36;47.83;;;17.42;;
18929;SDS011;43305;52.186;5.598;2023-11-21T06:15:06;42.33;;;16.60;;
18929;SDS011;43305;52.186;5.598;2023-11-21T06:17:34;39.13;;;15.82;;
18929;SDS011;43305;52.186;5.598;2023-11-21T06:20:02;43.63;;;16.48;;
18929;SDS011;43305;52.186;5.598;2023-11-21T06:22:35;36.72;;;15.50;;
18929;SDS011;43305;52.186;5.598;2023-11-21T06:25:06;42.20;;;16.17;;
18929;SDS011;43305;52.186;5.598;2023-11-21T06:27:34;37.85;;;15.88;;
18929;SDS011;43305;52.186;5.598;2023-11-21T06:30:04;34.90;;;15.80;;
18929;SDS011;43305;52.186;5.598;2023-11-21T06:32:34;44.10;;;16.55;;
18929;SDS011;43305;52.186;5.598;2023-11-21T06:35:01;40.03;;;16.75;;
18929;SDS011;43305;52.186;5.598;2023-11-21T06:37:29;37.97;;;15.77;;
18929;SDS011;43305;52.186;5.598;2023-11-21T06:39:58;40.58;;;17.30;;
18929;SDS011;43305;52.186;5.598;2023-11-21T06:42:26;46.45;;;17.95;;
18929;SDS011;43305;52.186;5.598;2023-11-21T06:44:54;46.88;;;18.23;;
18929;SDS011;43305;52.186;5.598;2023-11-21T06:47:22;42.03;;;17.23;;
18929;SDS011;43305;52.186;5.598;2023-11-21T06:49:50;42.10;;;17.00;;
18929;SDS011;43305;52.186;5.598;2023-11-21T06:52:17;40.20;;;17.30;;
18929;SDS011;43305;52.186;5.598;2023-11-21T06:54:44;45.97;;;17.10;;
18929;SDS011;43305;52.186;5.598;2023-11-21T06:57:13;40.80;;;17.60;;
18929;SDS011;43305;52.186;5.598;2023-11-21T06:59:41;37.13;;;16.35;;
18929;SDS011;43305;52.186;5.598;2023-11-21T07:02:08;36.60;;;16.30;;
18929;SDS011;43305;52.186;5.598;2023-11-21T07:04:35;39.95;;;16.50;;
18929;SDS011;43305;52.186;5.598;2023-11-21T07:07:02;43.10;;;17.50;;
18929;SDS011;43305;52.186;5.598;2023-11-21T07:09:35;33.60;;;16.88;;
18929;SDS011;43305;52.186;5.598;2023-11-21T07:12:02;34.25;;;16.15;;
18929;SDS011;43305;52.186;5.598;2023-11-21T07:14:37;31.13;;;16.02;;
18929;SDS011;43305;52.186;5.598;2023-11-21T07:17:06;38.83;;;16.70;;
18929;SDS011;43305;52.186;5.598;2023-11-21T07:19:36;42.47;;;17.95;;
18929;SDS011;43305;52.186;5.598;2023-11-21T07:22:02;38.88;;;16.83;;
18929;SDS011;43305;52.186;5.598;2023-11-21T07:24:36;39.83;;;17.20;;
18929;SDS011;43305;52.186;5.598;2023-11-21T07:27:06;42.65;;;17.50;;
18929;SDS011;43305;52.186;5.598;2023-11-21T07:29:38;41.78;;;16.52;;
18929;SDS011;43305;52.186;5.598;2023-11-21T07:32:08;38.20;;;16.20;;
18929;SDS011;43305;52.186;5.598;2023-11-21T07:34:35;37.63;;;16.27;;
18929;SDS011;43305;52.186;5.598;2023-11-21T07:37:02;38.83;;;17.33;;
18929;SDS011;43305;52.186;5.598;2023-11-21T07:39:30;41.42;;;18.02;;
18929;SDS011;43305;52.186;5.598;2023-11-21T07:41:57;39.92;;;15.95;;
18929;SDS011;43305;52.186;5.598;2023-11-21T07:44:24;34.92;;;17.02;;
18929;SDS011;43305;52.186;5.598;2023-11-21T07:46:55;34.38;;;16.55;;
18929;SDS011;43305;52.186;5.598;2023-11-21T07:49:22;31.65;;;15.70;;
18929;SDS011;43305;52.186;5.598;2023-11-21T07:51:49;37.33;;;17.48;;
18929;SDS011;43305;52.186;5.598;2023-11-21T07:54:16;36.17;;;16.52;;
18929;SDS011;43305;52.186;5.598;2023-11-21T07:56:43;38.08;;;17.40;;
18929;SDS011;43305;52.186;5.598;2023-11-21T07:59:12;34.35;;;18.20;;
18929;SDS011;43305;52.186;5.598;2023-11-21T08:01:39;34.08;;;16.80;;
18929;SDS011;43305;52.186;5.598;2023-11-21T08:04:09;38.25;;;18.85;;
18929;SDS011;43305;52.186;5.598;2023-11-21T08:06:36;31.27;;;17.17;;
18929;SDS011;43305;52.186;5.598;2023-11-21T08:09:06;33.45;;;16.63;;
18929;SDS011;43305;52.186;5.598;2023-11-21T08:11:33;34.17;;;17.17;;
18929;SDS011;43305;52.186;5.598;2023-11-21T08:14:00;36.10;;;16.88;;
18929;SDS011;43305;52.186;5.598;2023-11-21T08:16:27;35.60;;;17.77;;
18929;SDS011;43305;52.186;5.598;2023-11-21T08:18:56;38.08;;;17.90;;
18929;SDS011;43305;52.186;5.598;2023-11-21T08:21:24;37.65;;;18.33;;
18929;SDS011;43305;52.186;5.598;2023-11-21T08:23:54;37.35;;;17.70;;
18929;SDS011;43305;52.186;5.598;2023-11-21T08:26:21;45.47;;;18.80;;
18929;SDS011;43305;52.186;5.598;2023-11-21T08:28:48;35.65;;;17.70;;
18929;SDS011;43305;52.186;5.598;2023-11-21T08:31:17;47.13;;;18.40;;
18929;SDS011;43305;52.186;5.598;2023-11-21T08:33:49;40.78;;;18.35;;
18929;SDS011;43305;52.186;5.598;2023-11-21T08:36:16;40.65;;;18.33;;
18929;SDS011;43305;52.186;5.598;2023-11-21T08:38:44;39.92;;;17.75;;
18929;SDS011;43305;52.186;5.598;2023-11-21T08:41:11;42.35;;;17.38;;
18929;SDS011;43305;52.186;5.598;2023-11-21T08:43:39;37.47;;;17.23;;
18929;SDS011;43305;52.186;5.598;2023-11-21T08:46:07;38.40;;;17.48;;
18929;SDS011;43305;52.186;5.598;2023-11-21T08:48:35;42.35;;;18.27;;
18929;SDS011;43305;52.186;5.598;2023-11-21T08:51:02;50.47;;;22.75;;
18929;SDS011;43305;52.186;5.598;2023-11-21T08:53:32;37.95;;;17.98;;
18929;SDS011;43305;52.186;5.598;2023-11-21T08:56:04;48.05;;;19.77;;
18929;SDS011;43305;52.186;5.598;2023-11-21T08:58:32;42.00;;;18.02;;
18929;SDS011;43305;52.186;5.598;2023-11-21T09:00:59;50.80;;;19.55;;
18929;SDS011;43305;52.186;5.598;2023-11-21T09:03:26;48.13;;;19.02;;
18929;SDS011;43305;52.186;5.598;2023-11-21T09:05:53;41.28;;;17.98;;
18929;SDS011;43305;52.186;5.598;2023-11-21T09:08:20;45.03;;;18.50;;
18929;SDS011;43305;52.186;5.598;2023-11-21T09:10:48;40.72;;;17.35;;
18929;SDS011;43305;52.186;5.598;2023-11-21T09:13:17;54.83;;;19.23;;
18929;SDS011;43305;52.186;5.598;2023-11-21T09:15:44;44.22;;;18.20;;
18929;SDS011;43305;52.186;5.598;2023-11-21T09:18:11;44.22;;;17.75;;
18929;SDS011;43305;52.186;5.598;2023-11-21T09:20:39;41.35;;;17.75;;
18929;SDS011;43305;52.186;5.598;2023-11-21T09:23:06;57.15;;;17.70;;
18929;SDS011;43305;52.186;5.598;2023-11-21T09:25:36;44.63;;;17.55;;
18929;SDS011;43305;52.186;5.598;2023-11-21T09:28:06;41.42;;;15.60;;
18929;SDS011;43305;52.186;5.598;2023-11-21T09:30:35;40.22;;;16.98;;
18929;SDS011;43305;52.186;5.598;2023-11-21T09:33:02;36.88;;;15.40;;
18929;SDS011;43305;52.186;5.598;2023-11-21T09:35:34;34.20;;;17.58;;
18929;SDS011;43305;52.186;5.598;2023-11-21T09:38:00;36.55;;;15.63;;
18929;SDS011;43305;52.186;5.598;2023-11-21T09:40:30;29.73;;;14.00;;
18929;SDS011;43305;52.186;5.598;2023-11-21T09:42:57;33.67;;;14.27;;
18929;SDS011;43305;52.186;5.598;2023-11-21T09:45:25;28.65;;;14.32;;
18929;SDS011;43305;52.186;5.598;2023-11-21T09:47:55;27.15;;;13.02;;
18929;SDS011;43305;52.186;5.598;2023-11-21T09:50:22;27.95;;;13.07;;
18929;SDS011;43305;52.186;5.598;2023-11-21T09:53:03;25.95;;;12.95;;
18929;SDS011;43305;52.186;5.598;2023-11-21T09:55:38;27.73;;;13.18;;
18929;SDS011;43305;52.186;5.598;2023-11-21T09:58:07;27.52;;;12.65;;
18929;SDS011;43305;52.186;5.598;2023-11-21T10:00:37;27.00;;;12.70;;
18929;SDS011;43305;52.186;5.598;2023-11-21T10:03:11;24.88;;;12.27;;
18929;SDS011;43305;52.186;5.598;2023-11-21T10:05:38;23.73;;;12.25;;
18929;SDS011;43305;52.186;5.598;2023-11-21T10:08:07;24.90;;;12.75;;
18929;SDS011;43305;52.186;5.598;2023-11-21T10:10:35;25.58;;;12.05;;
18929;SDS011;43305;52.186;5.598;2023-11-21T10:13:06;28.63;;;13.15;;
18929;SDS011;43305;52.186;5.598;2023-11-21T10:15:38;27.77;;;12.63;;
18929;SDS011;43305;52.186;5.598;2023-11-21T10:18:10;28.83;;;13.52;;
18929;SDS011;43305;52.186;5.598;2023-11-21T10:20:40;28.35;;;12.90;;
18929;SDS011;43305;52.186;5.598;2023-11-21T10:23:11;29.30;;;13.35;;
18929;SDS011;43305;52.186;5.598;2023-11-21T10:25:38;27.58;;;13.05;;
18929;SDS011;43305;52.186;5.598;2023-11-21T10:28:05;30.63;;;13.75;;
18929;SDS011;43305;52.186;5.598;2023-11-21T10:30:32;29.67;;;13.45;;
18929;SDS011;43305;52.186;5.598;2023-11-21T10:33:07;28.05;;;12.50;;
18929;SDS011;43305;52.186;5.598;2023-11-21T10:35:45;32.95;;;14.63;;
18929;SDS011;43305;52.186;5.598;2023-11-21T10:38:15;31.08;;;13.00;;
18929;SDS011;43305;52.186;5.598;2023-11-21T10:40:43;28.23;;;12.45;;
18929;SDS011;43305;52.186;5.598;2023-11-21T10:43:11;32.28;;;12.45;;
18929;SDS011;43305;52.186;5.598;2023-11-21T10:45:40;29.67;;;13.15;;
18929;SDS011;43305;52.186;5.598;2023-11-21T10:48:07;27.70;;;12.20;;
18929;SDS011;43305;52.186;5.598;2023-11-21T10:50:35;29.98;;;12.40;;
18929;SDS011;43305;52.186;5.598;2023-11-21T10:53:07;30.65;;;12.23;;
18929;SDS011;43305;52.186;5.598;2023-11-21T10:55:34;26.80;;;11.68;;
18929;SDS011;43305;52.186;5.598;2023-11-21T10:58:02;30.30;;;12.43;;
18929;SDS011;43305;52.186;5.598;2023-11-21T11:00:31;28.40;;;12.00;;
18929;SDS011;43305;52.186;5.598;2023-11-21T11:02:59;31.35;;;12.80;;
18929;SDS011;43305;52.186;5.598;2023-11-21T11:05:27;30.95;;;12.68;;
18929;SDS011;43305;52.186;5.598;2023-11-21T11:07:58;27.20;;;11.63;;
18929;SDS011;43305;52.186;5.598;2023-11-21T11:10:32;30.55;;;12.82;;
18929;SDS011;43305;52.186;5.598;2023-11-21T11:13:01;28.50;;;12.65;;
18929;SDS011;43305;52.186;5.598;2023-11-21T11:15:30;30.45;;;12.90;;
18929;SDS011;43305;52.186;5.598;2023-11-21T11:17:58;30.40;;;13.73;;
18929;SDS011;43305;52.186;5.598;2023-11-21T11:20:27;31.42;;;13.38;;
18929;SDS011;43305;52.186;5.598;2023-11-21T11:23:10;33.35;;;13.77;;
18929;SDS011;43305;52.186;5.598;2023-11-21T11:25:59;30.60;;;13.18;;
18929;SDS011;43305;52.186;5.598;2023-11-21T11:28:42;32.65;;;14.48;;
18929;SDS011;43305;52.186;5.598;2023-11-21T11:31:14;31.45;;;14.02;;
18929;SDS011;43305;52.186;5.598;2023-11-21T11:33:55;36.03;;;14.95;;
18929;SDS011;43305;52.186;5.598;2023-11-21T11:36:27;32.60;;;14.40;;
18929;SDS011;43305;52.186;5.598;2023-11-21T11:39:04;34.30;;;14.85;;
18929;SDS011;43305;52.186;5.598;2023-11-21T11:41:55;37.92;;;15.75;;
18929;SDS011;43305;52.186;5.598;2023-11-21T11:47:16;37.05;;;14.68;;
18929;SDS011;43305;52.186;5.598;2023-11-21T11:52:39;36.88;;;15.70;;
18929;SDS011;43305;52.186;5.598;2023-11-21T11:55:08;32.45;;;14.52;;
18929;SDS011;43305;52.186;5.598;2023-11-21T11:57:37;34.55;;;14.88;;
18929;SDS011;43305;52.186;5.598;2023-11-21T12:00:09;34.78;;;15.65;;
18929;SDS011;43305;52.186;5.598;2023-11-21T12:02:41;32.03;;;15.27;;
18929;SDS011;43305;52.186;5.598;2023-11-21T12:05:08;40.88;;;16.83;;
18929;SDS011;43305;52.186;5.598;2023-11-21T12:07:43;36.45;;;16.20;;
18929;SDS011;43305;52.186;5.598;2023-11-21T12:10:11;37.15;;;16.33;;
18929;SDS011;43305;52.186;5.598;2023-11-21T12:12:43;37.50;;;16.35;;
18929;SDS011;43305;52.186;5.598;2023-11-21T12:15:14;33.35;;;15.25;;
18929;SDS011;43305;52.186;5.598;2023-11-21T12:17:42;32.75;;;15.45;;
18929;SDS011;43305;52.186;5.598;2023-11-21T12:20:10;30.02;;;14.25;;
18929;SDS011;43305;52.186;5.598;2023-11-21T12:22:42;32.72;;;15.40;;
18929;SDS011;43305;52.186;5.598;2023-11-21T12:25:12;33.20;;;15.55;;
18929;SDS011;43305;52.186;5.598;2023-11-21T12:27:41;30.40;;;14.75;;
18929;SDS011;43305;52.186;5.598;2023-11-21T12:30:11;29.50;;;14.63;;
18929;SDS011;43305;52.186;5.598;2023-11-21T12:32:40;29.90;;;15.10;;
18929;SDS011;43305;52.186;5.598;2023-11-21T12:35:08;28.08;;;13.93;;
18929;SDS011;43305;52.186;5.598;2023-11-21T12:37:36;28.50;;;14.70;;
18929;SDS011;43305;52.186;5.598;2023-11-21T12:40:05;30.33;;;14.20;;
18929;SDS011;43305;52.186;5.598;2023-11-21T12:42:36;28.85;;;13.63;;
18929;SDS011;43305;52.186;5.598;2023-11-21T12:45:19;27.45;;;13.20;;
18929;SDS011;43305;52.186;5.598;2023-11-21T12:47:47;23.15;;;11.90;;
18929;SDS011;43305;52.186;5.598;2023-11-21T12:50:15;22.88;;;12.40;;
18929;SDS011;43305;52.186;5.598;2023-11-21T12:52:48;23.30;;;12.43;;
18929;SDS011;43305;52.186;5.598;2023-11-21T12:55:16;21.05;;;11.18;;
18929;SDS011;43305;52.186;5.598;2023-11-21T12:57:47;20.73;;;10.02;;
18929;SDS011;43305;52.186;5.598;2023-11-21T13:00:18;18.90;;;10.63;;
18929;SDS011;43305;52.186;5.598;2023-11-21T13:02:53;19.63;;;9.77;;
18929;SDS011;43305;52.186;5.598;2023-11-21T13:05:28;16.23;;;8.90;;
18929;SDS011;43305;52.186;5.598;2023-11-21T13:07:56;14.13;;;7.25;;
18929;SDS011;43305;52.186;5.598;2023-11-21T13:10:25;13.68;;;7.13;;
18929;SDS011;43305;52.186;5.598;2023-11-21T13:12:56;12.05;;;6.10;;
18929;SDS011;43305;52.186;5.598;2023-11-21T13:15:26;13.85;;;7.13;;
18929;SDS011;43305;52.186;5.598;2023-11-21T13:17:53;13.43;;;6.22;;
18929;SDS011;43305;52.186;5.598;2023-11-21T13:20:21;11.40;;;5.70;;
18929;SDS011;43305;52.186;5.598;2023-11-21T13:22:49;12.63;;;6.47;;
18929;SDS011;43305;52.186;5.598;2023-11-21T13:25:19;11.15;;;5.88;;
18929;SDS011;43305;52.186;5.598;2023-11-21T13:27:46;11.45;;;5.05;;
18929;SDS011;43305;52.186;5.598;2023-11-21T13:30:13;8.75;;;4.68;;
18929;SDS011;43305;52.186;5.598;2023-11-21T13:32:43;10.85;;;5.05;;
18929;SDS011;43305;52.186;5.598;2023-11-21T13:35:11;9.90;;;4.75;;
18929;SDS011;43305;52.186;5.598;2023-11-21T13:37:46;11.95;;;4.97;;
18929;SDS011;43305;52.186;5.598;2023-11-21T13:40:18;9.85;;;4.60;;
18929;SDS011;43305;52.186;5.598;2023-11-21T13:42:48;11.25;;;4.90;;
18929;SDS011;43305;52.186;5.598;2023-11-21T13:45:18;11.60;;;5.50;;
18929;SDS011;43305;52.186;5.598;2023-11-21T13:47:49;12.30;;;5.90;;
18929;SDS011;43305;52.186;5.598;2023-11-21T13:50:23;11.63;;;5.80;;
18929;SDS011;43305;52.186;5.598;2023-11-21T13:52:55;16.52;;;7.80;;
18929;SDS011;43305;52.186;5.598;2023-11-21T13:55:23;21.10;;;10.05;;
18929;SDS011;43305;52.186;5.598;2023-11-21T13:57:50;21.92;;;11.02;;
18929;SDS011;43305;52.186;5.598;2023-11-21T14:00:17;27.75;;;11.82;;
18929;SDS011;43305;52.186;5.598;2023-11-21T14:03:08;27.02;;;12.00;;
18929;SDS011;43305;52.186;5.598;2023-11-21T14:05:42;25.50;;;11.50;;
18929;SDS011;43305;52.186;5.598;2023-11-21T14:08:09;29.15;;;12.90;;
18929;SDS011;43305;52.186;5.598;2023-11-21T14:10:41;29.35;;;12.13;;
18929;SDS011;43305;52.186;5.598;2023-11-21T14:13:09;29.02;;;12.88;;
18929;SDS011;43305;52.186;5.598;2023-11-21T14:15:38;28.92;;;13.43;;
18929;SDS011;43305;52.186;5.598;2023-11-21T14:18:09;27.23;;;13.10;;
18929;SDS011;43305;52.186;5.598;2023-11-21T14:20:37;27.25;;;13.20;;
18929;SDS011;43305;52.186;5.598;2023-11-21T14:23:04;32.88;;;15.40;;
18929;SDS011;43305;52.186;5.598;2023-11-21T14:25:31;29.27;;;13.63;;
18929;SDS011;43305;52.186;5.598;2023-11-21T14:27:59;29.85;;;14.48;;
18929;SDS011;43305;52.186;5.598;2023-11-21T14:30:28;32.78;;;14.52;;
18929;SDS011;43305;52.186;5.598;2023-11-21T14:32:57;31.80;;;15.18;;
18929;SDS011;43305;52.186;5.598;2023-11-21T14:35:25;31.58;;;15.13;;
18929;SDS011;43305;52.186;5.598;2023-11-21T14:37:52;34.80;;;14.90;;
18929;SDS011;43305;52.186;5.598;2023-11-21T14:40:20;28.83;;;13.38;;